Time;durP1;ratioP1;P1;durP2;ratioP2;P2;SDS_P1;SDS_P2;PMS_P1;PMS_P2;Temp;Humidity;BMP_temperature;BMP_pressure;BME280_temperature;BME280_humidity;BME280_pressure;Samples;Min_cycle;Max_cycle;Signal;HPM_P1;HPM_P2
2023/06/30 00:02:06;;;;;;;7.70;5.63;;;22.80;80.20;;;;;;5044922;28;20444;-74
2023/06/30 00:04:32;;;;;;;8.93;5.38;;;22.80;80.30;;;;;;5047040;28;20028;-73
2023/06/30 00:06:59;;;;;;;11.40;6.07;;;22.70;80.40;;;;;;5049122;28;20505;-74
2023/06/30 00:09:25;;;;;;;9.95;6.13;;;22.70;81.20;;;;;;5052346;28;20076;-73
2023/06/30 00:11:53;;;;;;;10.18;6.07;;;22.70;80.90;;;;;;5051633;28;20040;-73
2023/06/30 00:14:20;;;;;;;11.90;6.20;;;22.70;81.10;;;;;;5046012;28;20131;-74
2023/06/30 00:16:46;;;;;;;8.25;5.20;;;22.70;81.30;;;;;;5048641;28;20033;-74
2023/06/30 00:19:12;;;;;;;8.07;5.00;;;22.70;81.30;;;;;;5047868;28;20033;-75
2023/06/30 00:21:41;;;;;;;8.05;5.38;;;22.70;81.30;;;;;;5047959;28;20051;-75
2023/06/30 00:24:12;;;;;;;8.45;4.80;;;22.70;81.40;;;;;;5042860;28;20025;-75
2023/06/30 00:26:39;;;;;;;9.07;5.97;;;22.70;81.30;;;;;;5042659;28;20112;-75
2023/06/30 00:29:05;;;;;;;6.32;4.60;;;22.60;81.50;;;;;;5049983;28;20040;-75
2023/06/30 00:31:31;;;;;;;11.27;5.45;;;22.70;81.60;;;;;;5049401;28;20040;-74
2023/06/30 00:33:57;;;;;;;9.85;4.88;;;22.60;81.60;;;;;;5044355;28;20414;-74
2023/06/30 00:36:23;;;;;;;9.77;5.35;;;22.60;81.70;;;;;;5046658;28;20170;-74
2023/06/30 00:38:51;;;;;;;10.88;5.15;;;22.60;81.80;;;;;;5049330;28;20021;-74
2023/06/30 00:41:17;;;;;;;10.27;5.60;;;22.60;82.10;;;;;;5046842;28;20464;-75
2023/06/30 00:43:43;;;;;;;9.52;5.57;;;22.60;82.20;;;;;;5050422;28;20099;-75
2023/06/30 00:46:13;;;;;;;8.85;5.38;;;22.50;82.20;;;;;;5046564;28;20479;-75
2023/06/30 00:48:39;;;;;;;8.82;5.57;;;22.50;82.40;;;;;;5047836;28;20025;-74
2023/06/30 00:51:05;;;;;;;10.80;5.95;;;22.50;82.60;;;;;;5047594;28;20066;-75
2023/06/30 00:53:31;;;;;;;13.32;5.55;;;22.50;82.80;;;;;;5048675;28;20104;-74
2023/06/30 00:55:57;;;;;;;9.65;5.63;;;22.40;82.80;;;;;;5049516;28;20021;-74
2023/06/30 00:58:23;;;;;;;12.18;5.93;;;22.40;82.80;;;;;;5044378;28;20025;-73
2023/06/30 01:00:53;;;;;;;11.25;7.38;;;22.40;82.90;;;;;;5046252;28;20487;-73
2023/06/30 01:03:27;;;;;;;11.05;6.88;;;22.40;83.00;;;;;;5045431;28;20433;-73
2023/06/30 01:06:08;;;;;;;11.88;7.30;;;22.40;83.30;;;;;;5048406;28;20025;-73
2023/06/30 01:08:42;;;;;;;12.25;7.40;;;22.40;83.80;;;;;;5047412;28;20061;-73
2023/06/30 01:11:08;;;;;;;10.68;7.70;;;22.40;84.10;;;;;;5044188;28;20399;-74
2023/06/30 01:13:34;;;;;;;11.00;7.20;;;22.30;84.30;;;;;;5046515;28;20120;-74
2023/06/30 01:16:00;;;;;;;10.65;7.50;;;22.30;84.60;;;;;;5047812;28;20171;-73
2023/06/30 01:18:32;;;;;;;12.85;7.82;;;22.30;84.70;;;;;;5049784;28;20036;-74
2023/06/30 01:20:59;;;;;;;12.50;7.93;;;22.30;85.10;;;;;;5050791;28;20060;-74
2023/06/30 01:23:37;;;;;;;12.95;8.05;;;22.30;85.30;;;;;;5047955;28;20115;-73
2023/06/30 01:26:05;;;;;;;12.40;8.00;;;22.30;85.60;;;;;;5050621;28;20029;-73
2023/06/30 01:28:34;;;;;;;14.45;8.73;;;22.30;85.80;;;;;;5049076;28;20100;-73
2023/06/30 01:31:01;;;;;;;14.23;7.60;;;22.20;85.80;;;;;;5050599;28;20047;-73
2023/06/30 01:33:28;;;;;;;13.18;8.77;;;22.20;86.10;;;;;;5048463;28;20040;-73
2023/06/30 01:35:54;;;;;;;14.05;8.50;;;22.20;86.30;;;;;;5051708;28;20066;-73
2023/06/30 01:38:19;;;;;;;13.50;8.75;;;22.20;86.70;;;;;;5048207;28;20025;-73
2023/06/30 01:40:46;;;;;;;16.00;9.18;;;22.10;87.10;;;;;;5051028;28;20148;-73
2023/06/30 01:43:13;;;;;;;17.30;10.77;;;22.10;87.30;;;;;;5050889;28;20514;-73
2023/06/30 01:45:40;;;;;;;14.43;8.63;;;22.10;87.60;;;;;;5049078;28;20013;-73
2023/06/30 01:48:06;;;;;;;13.27;8.38;;;22.00;87.80;;;;;;5051606;28;20539;-73
2023/06/30 01:50:32;;;;;;;14.57;8.43;;;22.00;88.10;;;;;;5047351;28;20021;-73
2023/06/30 01:52:59;;;;;;;13.35;9.27;;;22.00;88.40;;;;;;5054152;28;20025;-74
2023/06/30 01:55:25;;;;;;;13.38;8.82;;;22.00;88.60;;;;;;5048291;28;20410;-73
2023/06/30 01:57:51;;;;;;;15.55;9.75;;;21.90;88.70;;;;;;5049107;28;20033;-73
2023/06/30 02:00:17;;;;;;;14.55;9.45;;;21.90;88.90;;;;;;5050948;28;20479;-73
2023/06/30 02:02:43;;;;;;;13.82;9.50;;;21.90;89.10;;;;;;5048932;28;20024;-73
2023/06/30 02:05:12;;;;;;;13.90;9.20;;;21.90;89.10;;;;;;5046139;28;20061;-73
2023/06/30 02:07:37;;;;;;;14.75;10.07;;;21.90;89.40;;;;;;5049312;28;20111;-73
2023/06/30 02:10:03;;;;;;;16.52;9.85;;;21.90;89.60;;;;;;5051150;28;20084;-73
2023/06/30 02:12:29;;;;;;;15.93;9.75;;;21.90;89.80;;;;;;5048808;28;20037;-73
2023/06/30 02:14:55;;;;;;;17.92;9.93;;;21.90;89.90;;;;;;5046271;28;20147;-73
2023/06/30 02:17:35;;;;;;;18.83;10.60;;;21.80;89.90;;;;;;5048175;28;20059;-74
2023/06/30 02:20:09;;;;;;;18.55;10.80;;;21.80;90.10;;;;;;5064679;28;20037;-73
2023/06/30 02:22:35;;;;;;;16.17;10.18;;;21.70;90.10;;;;;;5047203;28;20036;-74
2023/06/30 02:25:01;;;;;;;17.73;10.45;;;21.80;90.20;;;;;;5050940;28;20029;-74
2023/06/30 02:27:27;;;;;;;16.92;10.18;;;21.80;90.30;;;;;;5051023;28;20036;-74
2023/06/30 02:29:53;;;;;;;15.48;10.27;;;21.70;90.30;;;;;;5053514;28;20063;-73
2023/06/30 02:32:19;;;;;;;17.30;10.60;;;21.80;90.40;;;;;;5050497;28;20021;-73
2023/06/30 02:34:44;;;;;;;19.17;11.38;;;21.70;90.50;;;;;;5050469;28;20074;-73
2023/06/30 02:37:10;;;;;;;17.00;10.00;;;21.70;90.50;;;;;;5047099;28;20438;-73
2023/06/30 02:39:36;;;;;;;20.67;10.85;;;21.70;90.60;;;;;;5053618;28;20036;-73
2023/06/30 02:42:02;;;;;;;18.40;10.27;;;21.70;90.60;;;;;;5052634;28;20052;-73
2023/06/30 02:44:28;;;;;;;17.63;11.13;;;21.70;90.70;;;;;;5051562;28;20049;-73
2023/06/30 02:46:53;;;;;;;16.10;10.35;;;21.60;90.70;;;;;;5051585;28;20048;-73
2023/06/30 02:49:19;;;;;;;20.52;10.93;;;21.70;90.80;;;;;;5050657;28;20025;-73
2023/06/30 02:51:45;;;;;;;18.67;10.82;;;21.60;90.80;;;;;;5043359;28;20025;-73
2023/06/30 02:54:10;;;;;;;17.73;10.45;;;21.60;90.90;;;;;;5049460;28;20049;-73
2023/06/30 02:56:36;;;;;;;17.42;10.27;;;21.60;91.00;;;;;;5050527;28;20100;-73
2023/06/30 02:59:01;;;;;;;17.35;10.68;;;21.60;91.00;;;;;;5050238;28;20036;-73
2023/06/30 03:01:27;;;;;;;18.15;11.00;;;21.60;91.00;;;;;;5039140;28;20503;-73
2023/06/30 03:03:53;;;;;;;15.80;10.13;;;21.60;91.10;;;;;;5051374;28;20032;-73
2023/06/30 03:06:20;;;;;;;17.85;10.70;;;21.60;91.40;;;;;;5048852;28;20110;-73
2023/06/30 03:08:45;;;;;;;19.00;10.73;;;21.60;91.30;;;;;;5047836;28;20114;-75
2023/06/30 03:11:11;;;;;;;17.30;10.55;;;21.60;91.30;;;;;;5049016;28;20063;-72
2023/06/30 03:13:37;;;;;;;17.20;10.77;;;21.60;91.40;;;;;;5050941;28;20020;-72
2023/06/30 03:16:03;;;;;;;19.73;11.55;;;21.60;91.50;;;;;;5046479;28;20634;-73
2023/06/30 03:18:29;;;;;;;19.20;10.20;;;21.50;91.40;;;;;;5046211;28;20040;-73
2023/06/30 03:20:54;;;;;;;16.52;9.40;;;21.50;91.40;;;;;;5047592;28;20040;-73
2023/06/30 03:23:20;;;;;;;12.98;7.97;;;21.50;91.40;;;;;;5047304;28;20052;-73
2023/06/30 03:25:45;;;;;;;11.60;7.85;;;21.50;91.30;;;;;;5044216;28;20156;-73
2023/06/30 03:28:11;;;;;;;14.32;7.63;;;21.50;91.10;;;;;;5046378;28;20098;-73
2023/06/30 03:30:37;;;;;;;9.75;7.00;;;21.50;90.90;;;;;;5049066;28;20041;-73
2023/06/30 03:33:02;;;;;;;11.50;6.25;;;21.40;90.80;;;;;;5048753;28;20028;-73
2023/06/30 03:35:28;;;;;;;11.40;7.78;;;21.40;90.70;;;;;;5050129;28;20021;-73
2023/06/30 03:37:54;;;;;;;13.18;7.85;;;21.40;90.80;;;;;;5048401;28;20177;-73
2023/06/30 03:40:20;;;;;;;15.98;8.50;;;21.40;90.90;;;;;;5048791;28;20072;-73
2023/06/30 03:42:45;;;;;;;18.70;9.60;;;21.40;91.00;;;;;;5045414;28;20040;-75
2023/06/30 03:45:11;;;;;;;15.98;9.48;;;21.40;91.40;;;;;;5051072;28;20017;-73
2023/06/30 03:47:37;;;;;;;14.77;10.32;;;21.40;91.80;;;;;;5049423;28;20055;-73
2023/06/30 03:50:03;;;;;;;16.05;8.90;;;21.40;92.20;;;;;;5053452;28;20428;-73
2023/06/30 03:52:29;;;;;;;14.82;8.15;;;21.40;92.20;;;;;;5055972;28;20021;-73
2023/06/30 03:54:54;;;;;;;15.65;8.35;;;21.40;92.00;;;;;;5053233;28;20043;-73
2023/06/30 03:57:20;;;;;;;12.57;7.43;;;21.40;92.00;;;;;;5048445;28;20029;-72
2023/06/30 03:59:46;;;;;;;12.43;6.68;;;21.40;92.60;;;;;;5049041;28;20064;-73
2023/06/30 04:02:12;;;;;;;11.50;6.28;;;21.40;92.80;;;;;;5050086;28;20036;-72
2023/06/30 04:04:38;;;;;;;9.35;5.85;;;21.30;93.00;;;;;;5052823;28;20542;-73
2023/06/30 04:07:04;;;;;;;8.13;5.85;;;21.30;92.80;;;;;;5052447;28;20021;-75
2023/06/30 04:09:30;;;;;;;8.75;5.13;;;21.20;92.80;;;;;;5050139;28;20029;-75
2023/06/30 04:11:55;;;;;;;7.78;5.85;;;21.20;92.80;;;;;;5052725;28;20430;-74
2023/06/30 04:14:21;;;;;;;9.90;7.00;;;21.10;93.20;;;;;;5050196;28;20032;-74
2023/06/30 04:16:47;;;;;;;11.80;6.75;;;21.10;93.60;;;;;;5051257;28;20071;-75
2023/06/30 04:19:12;;;;;;;10.38;6.18;;;21.10;93.80;;;;;;5052538;28;20032;-75
2023/06/30 04:21:38;;;;;;;10.73;6.85;;;21.00;94.00;;;;;;5052731;28;20028;-75
2023/06/30 04:24:04;;;;;;;12.18;7.18;;;21.00;94.20;;;;;;5054690;28;20049;-75
2023/06/30 04:26:31;;;;;;;12.27;7.45;;;21.00;94.40;;;;;;5055018;28;20028;-74
2023/06/30 04:28:57;;;;;;;13.63;8.02;;;21.00;94.50;;;;;;5055079;28;20021;-74
2023/06/30 04:31:22;;;;;;;13.40;8.38;;;20.90;94.70;;;;;;5054353;28;20040;-75
2023/06/30 04:33:49;;;;;;;17.55;9.48;;;20.90;95.20;;;;;;5055949;28;20021;-74
2023/06/30 04:36:20;;;;;;;16.35;9.13;;;20.90;96.70;;;;;;5048193;28;20108;-75
2023/06/30 04:38:48;;;;;;;14.52;9.00;;;20.80;97.60;;;;;;5049356;28;20021;-75
2023/06/30 04:41:18;;;;;;;20.73;10.55;;;20.70;99.60;;;;;;5054046;28;20021;-75
2023/06/30 04:43:43;;;;;;;15.63;9.43;;;20.70;99.90;;;;;;5054357;28;20055;-75
2023/06/30 04:46:09;;;;;;;21.95;11.32;;;20.60;99.90;;;;;;5053435;28;20036;-76
2023/06/30 04:48:35;;;;;;;17.80;10.32;;;20.60;99.90;;;;;;5054015;28;20025;-75
2023/06/30 04:51:01;;;;;;;16.95;9.20;;;20.50;99.90;;;;;;5054248;28;20555;-74
2023/06/30 04:53:27;;;;;;;17.33;9.25;;;20.50;99.90;;;;;;5055610;28;20040;-76
2023/06/30 04:55:52;;;;;;;16.42;10.00;;;20.40;99.90;;;;;;5038791;28;20044;-71
2023/06/30 04:58:18;;;;;;;16.40;9.88;;;20.30;99.90;;;;;;5034029;28;20480;-70
2023/06/30 05:00:44;;;;;;;21.30;10.70;;;20.30;99.90;;;;;;5034615;28;20033;-70
2023/06/30 05:03:10;;;;;;;16.13;10.18;;;20.20;99.90;;;;;;5049164;28;20176;-71
2023/06/30 05:05:36;;;;;;;19.33;11.55;;;20.10;99.90;;;;;;5034200;28;20192;-70
2023/06/30 05:08:02;;;;;;;17.88;11.70;;;20.10;99.90;;;;;;5048882;28;20095;-70
2023/06/30 05:10:27;;;;;;;21.92;12.07;;;20.10;99.90;;;;;;5034492;28;20325;-69
2023/06/30 05:12:53;;;;;;;22.58;11.52;;;20.10;99.90;;;;;;5049619;28;20025;-70
2023/06/30 05:15:19;;;;;;;19.15;10.80;;;20.10;99.90;;;;;;5034430;28;20060;-70
2023/06/30 05:17:44;;;;;;;20.63;12.07;;;20.00;99.90;;;;;;5033795;28;20502;-71
2023/06/30 05:20:10;;;;;;;24.23;11.27;;;20.00;99.90;;;;;;5035290;28;20454;-70
2023/06/30 05:22:36;;;;;;;19.75;10.75;;;20.00;99.90;;;;;;5054112;28;20495;-70
2023/06/30 05:25:02;;;;;;;19.30;11.93;;;20.00;99.90;;;;;;5054114;28;20020;-70
2023/06/30 05:27:28;;;;;;;16.10;9.73;;;20.00;99.90;;;;;;5054018;28;20523;-70
2023/06/30 05:29:54;;;;;;;16.60;9.60;;;19.90;99.90;;;;;;5051802;28;20021;-71
2023/06/30 05:32:19;;;;;;;16.30;9.80;;;19.80;99.90;;;;;;5053917;28;20025;-72
2023/06/30 05:34:48;;;;;;;18.80;10.55;;;19.80;99.90;;;;;;5054068;28;20032;-70
2023/06/30 05:37:14;;;;;;;13.90;8.48;;;19.80;99.90;;;;;;5053381;28;20031;-70
2023/06/30 05:39:39;;;;;;;17.55;9.70;;;19.70;99.90;;;;;;5053565;28;20048;-71
2023/06/30 05:42:05;;;;;;;17.33;10.50;;;19.70;99.90;;;;;;5053766;28;20048;-70
2023/06/30 05:44:31;;;;;;;17.52;10.30;;;19.60;99.90;;;;;;5053654;28;20495;-70
2023/06/30 05:46:57;;;;;;;17.10;10.88;;;19.60;99.90;;;;;;5052810;28;20089;-71
2023/06/30 05:49:25;;;;;;;13.55;8.68;;;19.70;99.90;;;;;;5054181;28;20045;-71
2023/06/30 05:51:50;;;;;;;15.48;10.43;;;19.70;99.90;;;;;;5053741;28;20426;-71
2023/06/30 05:54:16;;;;;;;16.52;11.15;;;19.70;99.90;;;;;;5053765;28;20052;-71
2023/06/30 05:56:42;;;;;;;18.80;11.07;;;19.70;99.90;;;;;;5051122;28;20124;-71
2023/06/30 05:59:10;;;;;;;18.35;11.25;;;19.70;99.90;;;;;;5057694;28;20029;-71
2023/06/30 06:01:39;;;;;;;16.25;10.20;;;19.80;99.90;;;;;;5063880;28;20181;-71
2023/06/30 06:04:10;;;;;;;15.02;10.27;;;19.80;99.90;;;;;;5049911;28;20677;-71
2023/06/30 06:06:39;;;;;;;16.52;9.88;;;19.80;99.90;;;;;;5052858;28;20104;-71
2023/06/30 06:09:05;;;;;;;16.02;10.38;;;19.80;99.90;;;;;;5048466;28;20466;-78
2023/06/30 06:11:34;;;;;;;18.15;10.70;;;19.80;99.90;;;;;;5052165;28;20021;-78
2023/06/30 06:14:00;;;;;;;18.55;10.98;;;19.80;99.90;;;;;;5054417;28;20026;-77
2023/06/30 06:16:26;;;;;;;16.48;9.85;;;19.80;99.90;;;;;;5054196;28;20079;-78
2023/06/30 06:18:52;;;;;;;15.70;10.07;;;19.80;99.90;;;;;;5055514;28;20025;-79
2023/06/30 06:21:18;;;;;;;16.10;9.60;;;19.80;99.90;;;;;;5053348;28;20037;-78
2023/06/30 06:24:07;;;;;;;19.90;10.38;;;19.80;99.90;;;;;;5051920;28;20017;-78
2023/06/30 06:26:36;;;;;;;13.57;9.45;;;19.80;99.90;;;;;;5050387;28;20025;-78
2023/06/30 06:29:03;;;;;;;14.18;9.60;;;19.80;99.90;;;;;;5064531;28;20020;-78
2023/06/30 06:31:38;;;;;;;14.55;9.48;;;19.70;99.90;;;;;;5069198;28;20112;-79
2023/06/30 06:34:03;;;;;;;14.85;9.27;;;19.70;99.90;;;;;;5065951;28;20032;-79
2023/06/30 06:36:49;;;;;;;16.55;9.63;;;19.70;99.90;;;;;;5068235;28;20024;-78
2023/06/30 06:39:18;;;;;;;20.37;10.43;;;19.70;99.90;;;;;;5056806;28;20022;-78
2023/06/30 06:41:44;;;;;;;16.55;9.48;;;19.80;99.90;;;;;;5056741;28;20021;-78
2023/06/30 06:44:11;;;;;;;18.48;10.18;;;19.90;99.90;;;;;;5053115;28;20037;-78
2023/06/30 06:46:37;;;;;;;16.15;9.98;;;19.90;99.90;;;;;;5055436;28;20107;-79
2023/06/30 06:49:03;;;;;;;16.15;10.30;;;19.90;99.90;;;;;;5059041;28;20029;-78
2023/06/30 06:51:29;;;;;;;14.65;10.00;;;19.90;99.90;;;;;;5059389;28;20029;-78
2023/06/30 06:53:55;;;;;;;16.30;9.02;;;19.90;99.90;;;;;;5054544;28;20059;-79
2023/06/30 06:56:20;;;;;;;15.35;9.20;;;20.00;99.90;;;;;;5058738;28;20018;-78
2023/06/30 06:58:46;;;;;;;13.30;8.32;;;19.90;99.90;;;;;;5059527;28;20403;-78
2023/06/30 07:01:12;;;;;;;11.48;8.88;;;19.90;99.90;;;;;;5049994;28;20029;-78
2023/06/30 07:03:38;;;;;;;13.80;8.88;;;19.90;99.90;;;;;;5057079;28;20031;-78
2023/06/30 07:06:07;;;;;;;15.27;9.40;;;19.90;99.90;;;;;;5056325;28;20060;-79
2023/06/30 07:08:35;;;;;;;15.18;9.52;;;19.80;99.90;;;;;;5057423;28;20021;-78
2023/06/30 07:11:03;;;;;;;15.63;10.25;;;19.80;99.90;;;;;;5063059;28;20021;-79
2023/06/30 07:13:28;;;;;;;17.25;9.27;;;19.80;99.90;;;;;;5057931;28;20044;-78
2023/06/30 07:15:54;;;;;;;18.90;10.30;;;19.80;99.90;;;;;;5052434;28;20129;-78
2023/06/30 07:18:21;;;;;;;14.90;9.82;;;19.80;99.90;;;;;;5054667;28;20025;-78
2023/06/30 07:20:48;;;;;;;15.13;8.48;;;19.70;99.90;;;;;;5058455;28;20017;-78
2023/06/30 07:23:14;;;;;;;15.25;9.20;;;19.70;99.90;;;;;;5058769;28;20051;-79
2023/06/30 07:25:40;;;;;;;15.85;8.90;;;19.70;99.90;;;;;;5059362;28;20021;-77
2023/06/30 07:28:05;;;;;;;16.00;10.18;;;19.70;99.90;;;;;;5060283;28;20063;-77
2023/06/30 07:30:31;;;;;;;13.63;8.70;;;19.60;99.90;;;;;;5060616;28;20032;-79
2023/06/30 07:32:57;;;;;;;13.57;9.48;;;19.60;99.90;;;;;;5064004;28;20092;-78
2023/06/30 07:35:23;;;;;;;16.38;10.40;;;19.60;99.90;;;;;;5062577;28;20029;-78
2023/06/30 07:37:50;;;;;;;17.80;10.68;;;19.60;99.90;;;;;;5060006;28;20025;-77
2023/06/30 07:40:16;;;;;;;13.43;9.55;;;19.60;99.90;;;;;;5060614;28;20052;-78
2023/06/30 07:42:43;;;;;;;12.75;9.25;;;19.60;99.90;;;;;;5061327;28;20084;-79
2023/06/30 07:45:11;;;;;;;13.75;9.35;;;19.60;99.90;;;;;;5063557;28;20033;-78
2023/06/30 07:47:37;;;;;;;18.05;10.27;;;19.70;99.90;;;;;;5062058;28;20039;-78
2023/06/30 07:50:09;;;;;;;14.00;9.55;;;19.70;99.90;;;;;;5060358;28;20025;-78
2023/06/30 07:52:55;;;;;;;14.85;8.80;;;19.70;99.90;;;;;;5062449;28;20373;-79
2023/06/30 07:55:20;;;;;;;14.00;9.02;;;19.80;99.90;;;;;;5057950;28;20037;-78
2023/06/30 07:57:48;;;;;;;16.58;10.20;;;19.80;99.90;;;;;;5057774;28;20106;-79
2023/06/30 08:00:15;;;;;;;13.40;9.15;;;19.80;99.90;;;;;;5058811;28;20028;-78
2023/06/30 08:02:45;;;;;;;16.90;10.13;;;19.90;99.90;;;;;;5072085;28;20116;-77
2023/06/30 08:05:11;;;;;;;14.90;10.38;;;19.90;99.90;;;;;;5077583;28;20479;-77
2023/06/30 08:07:37;;;;;;;15.43;10.02;;;20.00;99.90;;;;;;5070113;22;20045;-74
2023/06/30 08:10:03;;;;;;;14.82;9.43;;;20.00;99.90;;;;;;5029597;28;20384;-73
2023/06/30 08:12:28;;;;;;;15.38;8.82;;;20.10;99.90;;;;;;5029461;28;20044;-73
2023/06/30 08:14:54;;;;;;;16.70;9.73;;;20.10;99.90;;;;;;5028431;28;20064;-73
2023/06/30 08:17:20;;;;;;;13.57;8.65;;;20.20;99.90;;;;;;5024710;28;20040;-73
2023/06/30 08:19:46;;;;;;;13.68;8.98;;;20.20;99.90;;;;;;5028816;28;20025;-74
2023/06/30 08:22:15;;;;;;;14.93;9.43;;;20.30;99.90;;;;;;5027069;28;20037;-74
2023/06/30 08:24:42;;;;;;;12.93;8.80;;;20.30;99.90;;;;;;5025436;28;20022;-74
2023/06/30 08:27:08;;;;;;;18.58;9.43;;;20.40;99.90;;;;;;5025301;28;20124;-73
2023/06/30 08:29:34;;;;;;;16.58;9.88;;;20.40;99.90;;;;;;5024416;28;20109;-74
2023/06/30 08:32:00;;;;;;;14.93;9.35;;;20.50;99.90;;;;;;5030036;28;20235;-74
2023/06/30 08:34:26;;;;;;;16.90;10.02;;;20.50;99.90;;;;;;5024445;28;20045;-74
2023/06/30 08:36:55;;;;;;;17.30;10.10;;;20.60;99.90;;;;;;5023757;28;20034;-74
2023/06/30 08:39:26;;;;;;;16.13;10.07;;;20.60;99.90;;;;;;5029663;28;20029;-74
2023/06/30 08:41:54;;;;;;;15.73;9.70;;;20.70;99.90;;;;;;5031152;28;20056;-73
2023/06/30 08:44:27;;;;;;;15.13;10.48;;;20.60;99.90;;;;;;5024425;28;20022;-74
2023/06/30 08:46:54;;;;;;;18.00;11.20;;;20.70;99.90;;;;;;5024956;28;20079;-74
2023/06/30 08:49:22;;;;;;;16.83;10.70;;;20.80;99.90;;;;;;5024486;28;20039;-73
2023/06/30 08:51:49;;;;;;;19.23;11.57;;;20.90;99.90;;;;;;5027822;28;20513;-73
2023/06/30 08:54:15;;;;;;;18.70;11.98;;;21.00;99.90;;;;;;5026132;28;20026;-73
2023/06/30 08:56:41;;;;;;;19.70;12.10;;;21.10;99.90;;;;;;5024628;28;20041;-75
2023/06/30 08:59:07;;;;;;;23.58;12.63;;;21.20;99.90;;;;;;5041983;28;20036;-74
2023/06/30 09:01:33;;;;;;;18.60;11.85;;;21.20;99.90;;;;;;5034555;28;20014;-74
2023/06/30 09:04:00;;;;;;;20.02;12.60;;;21.20;99.90;;;;;;5023035;28;20049;-73
2023/06/30 09:06:26;;;;;;;17.35;12.00;;;21.30;99.90;;;;;;5031252;28;20025;-73
2023/06/30 09:08:59;;;;;;;21.15;12.82;;;21.30;99.90;;;;;;5027096;28;20507;-73
2023/06/30 09:11:29;;;;;;;16.90;11.27;;;21.30;99.90;;;;;;5029087;28;20017;-73
2023/06/30 09:14:01;;;;;;;15.73;10.90;;;21.40;99.90;;;;;;5033286;28;20037;-73
2023/06/30 09:16:30;;;;;;;20.23;11.67;;;21.30;99.90;;;;;;5026493;28;20468;-74
2023/06/30 09:18:56;;;;;;;18.23;10.88;;;21.40;99.90;;;;;;5030737;28;20032;-73
2023/06/30 09:21:22;;;;;;;16.92;11.75;;;21.40;99.90;;;;;;5025409;28;20042;-73
2023/06/30 09:23:47;;;;;;;17.63;11.57;;;21.40;99.90;;;;;;5027764;28;20025;-74
2023/06/30 09:26:14;;;;;;;15.98;9.73;;;21.40;99.90;;;;;;5029255;28;20029;-73
2023/06/30 09:28:42;;;;;;;16.98;10.38;;;21.40;99.90;;;;;;5028276;28;20049;-76
2023/06/30 09:31:08;;;;;;;16.48;10.70;;;21.30;99.90;;;;;;5026097;28;20502;-75
2023/06/30 09:33:35;;;;;;;13.32;9.63;;;21.30;99.90;;;;;;5030707;28;20056;-74
2023/06/30 09:36:02;;;;;;;15.68;11.05;;;21.20;99.90;;;;;;5040743;28;20106;-75
2023/06/30 09:38:29;;;;;;;17.35;10.68;;;21.20;99.90;;;;;;5029721;28;20032;-75
2023/06/30 09:40:56;;;;;;;17.08;10.32;;;21.10;99.90;;;;;;5030818;28;20028;-74
2023/06/30 09:43:26;;;;;;;16.20;10.35;;;21.10;99.90;;;;;;5029893;28;20192;-74
2023/06/30 09:46:00;;;;;;;15.80;10.32;;;21.10;99.90;;;;;;5025076;28;20021;-75
2023/06/30 09:48:43;;;;;;;16.33;9.70;;;21.10;99.90;;;;;;5026163;28;20021;-74
2023/06/30 09:51:10;;;;;;;14.63;9.20;;;21.10;99.90;;;;;;5027864;28;20041;-74
2023/06/30 09:53:37;;;;;;;14.20;10.32;;;21.10;99.90;;;;;;5028880;28;20087;-74
2023/06/30 09:56:03;;;;;;;19.15;11.15;;;21.00;99.90;;;;;;5029167;28;20029;-74
2023/06/30 09:58:30;;;;;;;15.68;10.82;;;21.10;99.90;;;;;;5022829;28;20655;-74
2023/06/30 10:00:57;;;;;;;18.27;10.70;;;21.10;99.90;;;;;;5029674;28;20037;-75
2023/06/30 10:03:23;;;;;;;19.48;11.35;;;21.00;99.90;;;;;;5036472;28;20545;-74
2023/06/30 10:05:49;;;;;;;17.77;11.20;;;21.10;99.90;;;;;;5026964;28;20029;-74
2023/06/30 10:08:15;;;;;;;19.15;10.73;;;21.00;99.90;;;;;;5027215;28;20065;-74
2023/06/30 10:10:42;;;;;;;16.80;10.60;;;21.00;99.90;;;;;;5027131;28;20096;-74
2023/06/30 10:13:10;;;;;;;18.48;11.68;;;21.00;99.90;;;;;;5025449;28;20061;-73
2023/06/30 10:15:36;;;;;;;19.80;10.82;;;21.00;99.90;;;;;;5026786;28;20063;-74
2023/06/30 10:18:03;;;;;;;18.77;10.65;;;21.00;99.90;;;;;;5025526;28;20057;-73
2023/06/30 10:20:29;;;;;;;15.57;10.15;;;21.00;99.90;;;;;;5029905;28;20101;-73
2023/06/30 10:22:56;;;;;;;22.27;12.57;;;21.00;99.90;;;;;;5027455;28;20037;-74
2023/06/30 10:25:25;;;;;;;18.55;11.45;;;21.00;99.90;;;;;;5026584;28;20522;-74
2023/06/30 10:27:54;;;;;;;16.80;10.85;;;20.90;99.90;;;;;;5028139;28;20017;-74
2023/06/30 10:30:20;;;;;;;16.27;11.02;;;20.90;99.90;;;;;;5029711;28;20014;-73
2023/06/30 10:32:46;;;;;;;16.23;10.23;;;20.90;99.90;;;;;;5023846;28;20116;-74
2023/06/30 10:35:14;;;;;;;19.45;10.63;;;20.90;99.90;;;;;;5021307;28;20085;-74
2023/06/30 10:37:41;;;;;;;15.77;9.82;;;20.80;99.90;;;;;;5025889;28;20068;-73
2023/06/30 10:40:24;;;;;;;16.83;10.63;;;20.70;99.90;;;;;;5024835;28;20025;-73
2023/06/30 10:42:51;;;;;;;20.10;10.48;;;20.70;99.90;;;;;;5043148;28;20022;-73
2023/06/30 10:45:16;;;;;;;17.00;10.00;;;20.60;99.90;;;;;;5022582;28;20100;-73
2023/06/30 10:47:48;;;;;;;14.68;9.52;;;20.60;99.90;;;;;;5024300;28;20025;-74
2023/06/30 10:50:17;;;;;;;17.17;10.38;;;20.60;99.90;;;;;;5026383;28;20392;-74
2023/06/30 10:52:49;;;;;;;14.52;9.18;;;20.60;99.90;;;;;;5025355;28;20053;-74
2023/06/30 10:55:18;;;;;;;16.08;9.90;;;20.60;99.90;;;;;;5026306;28;20053;-74
2023/06/30 10:57:52;;;;;;;14.85;9.32;;;20.50;99.90;;;;;;5026276;28;20033;-74
2023/06/30 11:00:21;;;;;;;;;;;20.60;99.90;;;;;;5027353;28;20025;-74
2023/06/30 11:03:06;;;;;;;16.02;9.35;;;20.50;99.90;;;;;;5031859;28;20348;-73
2023/06/30 11:05:33;;;;;;;19.38;10.60;;;20.60;99.90;;;;;;5030245;28;20179;-73
2023/06/30 11:08:01;;;;;;;15.85;9.70;;;20.60;99.90;;;;;;5032862;28;20032;-76
2023/06/30 11:10:34;;;;;;;14.52;9.18;;;20.70;99.90;;;;;;5035163;28;20025;-75
2023/06/30 11:13:02;;;;;;;16.17;10.05;;;20.70;99.90;;;;;;5023631;28;20026;-76
2023/06/30 11:15:33;;;;;;;14.88;10.45;;;20.70;99.90;;;;;;5036480;28;20389;-75
2023/06/30 11:18:15;;;;;;;14.20;8.57;;;20.80;99.90;;;;;;5036557;28;20032;-75
2023/06/30 11:21:03;;;;;;;14.93;8.75;;;20.80;99.90;;;;;;5036288;28;20030;-74
2023/06/30 11:23:42;;;;;;;15.05;9.45;;;20.90;99.90;;;;;;5036541;28;20112;-74
2023/06/30 11:26:14;;;;;;;12.55;8.18;;;21.00;99.90;;;;;;5036204;28;20029;-74
2023/06/30 11:28:41;;;;;;;15.68;8.98;;;21.00;99.90;;;;;;5035781;28;20032;-74
2023/06/30 11:31:07;;;;;;;14.77;8.35;;;21.00;99.90;;;;;;5034392;28;20026;-74
2023/06/30 11:33:38;;;;;;;13.52;8.98;;;21.10;99.90;;;;;;5034471;28;20045;-73
2023/06/30 11:36:11;;;;;;;13.57;8.88;;;21.10;99.90;;;;;;5034466;28;20100;-73
2023/06/30 11:38:46;;;;;;;15.57;9.07;;;21.10;99.90;;;;;;5034267;28;20028;-73
2023/06/30 11:41:18;;;;;;;15.52;9.25;;;21.20;99.90;;;;;;5035614;28;20033;-72
2023/06/30 11:43:50;;;;;;;15.20;9.60;;;21.20;99.90;;;;;;5034346;28;20032;-73
2023/06/30 11:46:16;;;;;;;15.43;9.90;;;21.10;99.90;;;;;;5035687;28;20017;-73
2023/06/30 11:48:42;;;;;;;14.73;9.82;;;21.00;99.90;;;;;;5035688;28;20024;-73
2023/06/30 11:51:10;;;;;;;14.70;9.32;;;20.90;99.90;;;;;;5035603;28;20483;-73
2023/06/30 11:53:36;;;;;;;20.83;11.43;;;20.80;99.90;;;;;;5034320;28;20022;-73
2023/06/30 11:56:02;;;;;;;17.75;10.40;;;20.70;99.90;;;;;;5035498;28;20025;-75
2023/06/30 11:58:28;;;;;;;16.95;10.68;;;20.70;99.90;;;;;;5035758;28;20105;-75
2023/06/30 12:00:56;;;;;;;13.07;8.45;;;20.70;99.90;;;;;;5034043;28;20068;-74
2023/06/30 12:03:21;;;;;;;16.80;9.80;;;20.70;99.90;;;;;;5035276;28;20014;-74
2023/06/30 12:05:57;;;;;;;16.45;10.32;;;20.60;99.90;;;;;;5034029;28;20108;-74
2023/06/30 12:08:25;;;;;;;15.90;10.15;;;20.70;99.90;;;;;;5033841;28;20040;-74
2023/06/30 12:10:51;;;;;;;15.63;10.10;;;20.70;99.90;;;;;;5033824;28;20416;-74
2023/06/30 12:13:17;;;;;;;17.98;11.20;;;20.70;99.90;;;;;;5035054;28;20053;-75
2023/06/30 12:15:43;;;;;;;17.08;11.35;;;20.80;99.90;;;;;;5034782;28;20024;-74
2023/06/30 12:18:09;;;;;;;18.10;9.50;;;20.90;99.90;;;;;;5034552;28;20094;-73
2023/06/30 12:20:36;;;;;;;19.13;10.38;;;21.00;99.90;;;;;;5035086;28;20101;-73
2023/06/30 12:23:04;;;;;;;17.02;10.70;;;21.00;99.90;;;;;;5034920;28;20025;-75
2023/06/30 12:25:33;;;;;;;18.42;10.13;;;21.10;99.90;;;;;;5034859;28;20480;-75
2023/06/30 12:27:59;;;;;;;16.95;11.70;;;21.20;99.90;;;;;;5034876;28;20096;-74
2023/06/30 12:30:27;;;;;;;21.30;11.90;;;21.30;99.90;;;;;;5033607;28;20464;-74
2023/06/30 12:33:03;;;;;;;21.73;11.40;;;21.40;99.90;;;;;;5034787;28;20033;-75
2023/06/30 12:35:31;;;;;;;17.92;11.93;;;21.40;99.90;;;;;;5033780;28;20025;-74